Time;durP1;ratioP1;P1;durP2;ratioP2;P2;SDS_P1;SDS_P2;PMS_P1;PMS_P2;Temp;Humidity;BMP_temperature;BMP_pressure;BME280_temperature;BME280_humidity;BME280_pressure;Samples;Min_cycle;Max_cycle;Signal;HPM_P1;HPM_P2
2023/03/01 00:01:10;;;;;;;16.58;13.75;;;-1.20;99.90;;;;;;5083468;28;20042;-79
2023/03/01 00:03:36;;;;;;;19.67;14.18;;;-1.20;99.90;;;;;;5073896;28;20123;-79
2023/03/01 00:06:02;;;;;;;16.73;14.07;;;-1.30;99.90;;;;;;5071248;28;20080;-80
2023/03/01 00:08:29;;;;;;;17.33;13.82;;;-1.30;99.90;;;;;;5073020;28;20483;-80
2023/03/01 00:11:07;;;;;;;17.85;12.75;;;-1.40;99.90;;;;;;5071587;28;20049;-79
2023/03/01 00:13:34;;;;;;;;;;;-1.30;99.90;;;;;;5079583;28;20084;-79
2023/03/01 00:16:05;;;;;;;18.48;13.23;;;-1.40;99.90;;;;;;5078036;28;20011;-79
2023/03/01 00:18:31;;;;;;;17.23;14.00;;;-1.40;99.90;;;;;;5093990;28;20044;-79
2023/03/01 00:20:57;;;;;;;20.17;15.43;;;-1.40;99.90;;;;;;5082555;28;20063;-79
2023/03/01 00:23:23;;;;;;;27.98;17.25;;;-1.40;99.90;;;;;;5075007;28;20572;-79
2023/03/01 00:25:49;;;;;;;22.48;18.50;;;-1.30;99.90;;;;;;5098766;28;20040;-79
2023/03/01 00:28:15;;;;;;;26.00;19.42;;;-1.30;99.90;;;;;;5078709;28;20041;-79
2023/03/01 00:30:41;;;;;;;27.35;20.00;;;-1.20;99.90;;;;;;5095482;28;20101;-80
2023/03/01 00:33:07;;;;;;;27.80;20.73;;;-1.20;99.90;;;;;;5080595;28;20041;-80
2023/03/01 00:35:34;;;;;;;26.33;19.58;;;-1.20;99.90;;;;;;5078309;28;20050;-80
2023/03/01 00:37:59;;;;;;;29.58;19.58;;;-1.10;99.90;;;;;;5071650;28;20032;-80
2023/03/01 00:40:26;;;;;;;26.30;20.42;;;-1.10;99.90;;;;;;5074324;28;20047;-80
2023/03/01 00:42:52;;;;;;;30.43;22.30;;;-1.10;99.90;;;;;;5074091;28;20479;-79
2023/03/01 00:45:18;;;;;;;27.88;20.80;;;-1.00;99.90;;;;;;5067634;28;20041;-78
2023/03/01 00:47:43;;;;;;;25.67;20.08;;;-1.00;99.90;;;;;;5060598;28;20032;-79
2023/03/01 00:50:10;;;;;;;27.23;20.08;;;-1.10;99.90;;;;;;5072397;28;20043;-79
2023/03/01 00:52:36;;;;;;;27.40;19.77;;;-1.00;99.90;;;;;;5069006;28;20570;-79
2023/03/01 00:55:02;;;;;;;27.60;20.85;;;-1.10;99.90;;;;;;5069039;28;20040;-79
2023/03/01 00:57:28;;;;;;;28.45;21.92;;;-1.20;99.90;;;;;;5085667;28;20076;-80
2023/03/01 00:59:54;;;;;;;23.13;18.85;;;-1.20;99.90;;;;;;5081602;28;20045;-80
2023/03/01 01:02:20;;;;;;;22.75;18.30;;;-1.30;99.90;;;;;;5065513;28;20040;-80
2023/03/01 01:04:46;;;;;;;24.95;19.75;;;-1.40;99.90;;;;;;5061851;28;20123;-80
2023/03/01 01:07:13;;;;;;;22.83;19.17;;;-1.40;99.90;;;;;;5076103;28;20048;-79
2023/03/01 01:09:39;;;;;;;30.73;21.95;;;-1.50;99.90;;;;;;5078921;28;20056;-80
2023/03/01 01:12:05;;;;;;;27.60;21.23;;;-1.40;99.90;;;;;;5072463;28;20044;-80
2023/03/01 01:14:30;;;;;;;28.23;20.73;;;-1.40;99.90;;;;;;5066686;28;20107;-80
2023/03/01 01:16:56;;;;;;;29.13;19.70;;;-1.50;99.90;;;;;;5069587;28;20041;-80
2023/03/01 01:19:22;;;;;;;27.45;20.23;;;-1.50;99.90;;;;;;5078039;28;20454;-80
2023/03/01 01:21:48;;;;;;;31.05;21.08;;;-1.50;99.90;;;;;;5080435;28;20406;-80
2023/03/01 01:24:15;;;;;;;25.75;19.55;;;-1.50;99.90;;;;;;5084096;28;20045;-80
2023/03/01 01:26:41;;;;;;;23.40;18.85;;;-1.60;99.90;;;;;;5071789;28;20048;-80
2023/03/01 01:29:08;;;;;;;25.70;19.90;;;-1.60;99.90;;;;;;5070552;28;20033;-80
2023/03/01 01:31:38;;;;;;;27.20;19.13;;;-1.70;99.90;;;;;;5067802;28;20483;-80
2023/03/01 01:34:06;;;;;;;25.80;19.13;;;-1.70;99.90;;;;;;5071924;28;20559;-82
2023/03/01 01:36:32;;;;;;;25.52;18.65;;;-1.80;99.90;;;;;;5072115;28;20056;-82
2023/03/01 01:38:58;;;;;;;25.75;19.05;;;-1.80;99.90;;;;;;5077898;28;20033;-82
2023/03/01 01:41:26;;;;;;;24.58;18.35;;;-1.80;99.90;;;;;;5074457;28;20509;-81
2023/03/01 01:44:10;;;;;;;24.95;18.77;;;-1.90;99.90;;;;;;5075508;28;20095;-81
2023/03/01 01:46:44;;;;;;;24.45;17.40;;;-1.90;99.90;;;;;;5071424;28;20190;-81
2023/03/01 01:49:33;;;;;;;24.65;19.08;;;-1.90;99.90;;;;;;5067668;28;20048;-81
2023/03/01 01:52:25;;;;;;;22.75;17.83;;;-2.00;99.90;;;;;;5070354;28;20056;-81
2023/03/01 01:55:00;;;;;;;24.42;18.67;;;-2.00;99.90;;;;;;5088872;28;20043;-80
2023/03/01 01:57:38;;;;;;;20.30;16.67;;;-2.10;99.90;;;;;;5068179;28;20052;-80
2023/03/01 02:00:20;;;;;;;23.67;17.90;;;-2.10;99.90;;;;;;5067414;28;20041;-80
2023/03/01 02:02:48;;;;;;;27.85;20.27;;;-2.10;99.90;;;;;;5064094;28;20032;-80
2023/03/01 02:05:28;;;;;;;25.88;19.08;;;-2.00;99.90;;;;;;5071273;28;20053;-80
2023/03/01 02:07:54;;;;;;;24.35;18.15;;;-2.10;99.90;;;;;;5070712;28;20041;-80
2023/03/01 02:10:22;;;;;;;26.70;19.75;;;-2.10;99.90;;;;;;5070482;28;20041;-80
2023/03/01 02:12:48;;;;;;;27.58;18.73;;;-2.20;99.90;;;;;;5072530;28;20029;-81
2023/03/01 02:15:13;;;;;;;21.85;17.27;;;-2.20;99.90;;;;;;5075762;28;20067;-79
2023/03/01 02:17:39;;;;;;;25.13;17.65;;;;;;;;;;5074819;28;20043;-80
2023/03/01 02:20:43;;;;;;;21.48;16.95;;;-2.30;99.90;;;;;;5074130;28;20155;-80
2023/03/01 02:23:08;;;;;;;24.63;18.02;;;-2.30;99.90;;;;;;5094683;28;20036;-80
2023/03/01 02:25:59;;;;;;;23.92;18.08;;;-2.30;99.90;;;;;;5092508;28;20487;-80
2023/03/01 02:28:33;;;;;;;24.70;17.17;;;-2.40;99.90;;;;;;5058474;28;20056;-80
2023/03/01 02:33:45;;;;;;;25.02;17.98;;;-2.50;99.90;;;;;;5100094;28;20044;-80
2023/03/01 02:36:17;;;;;;;22.85;18.10;;;-2.50;99.90;;;;;;5086887;28;20043;-80
2023/03/01 02:38:42;;;;;;;24.55;17.80;;;-2.50;99.90;;;;;;5079191;28;20041;-80
2023/03/01 02:41:10;;;;;;;25.98;18.02;;;-2.50;99.90;;;;;;5078315;28;20037;-80
2023/03/01 02:43:36;;;;;;;24.45;18.92;;;-2.50;99.90;;;;;;5073226;28;20094;-80
2023/03/01 02:46:05;;;;;;;23.45;18.48;;;-2.60;99.90;;;;;;5077694;28;20052;-80
2023/03/01 02:48:56;;;;;;;26.38;18.27;;;-2.60;99.90;;;;;;5064583;28;20095;-80
2023/03/01 02:51:56;;;;;;;27.15;17.75;;;-2.60;99.90;;;;;;5068913;28;20507;-80
2023/03/01 02:54:44;;;;;;;23.13;18.08;;;;;;;;;;5076784;28;20116;-80
2023/03/01 02:57:10;;;;;;;23.42;17.45;;;;;;;;;;5066805;28;20037;-80
2023/03/01 02:59:39;;;;;;;23.95;17.95;;;;;;;;;;5067307;28;20048;-79
2023/03/01 03:02:05;;;;;;;24.95;18.98;;;-2.70;99.90;;;;;;5062304;28;20395;-77
2023/03/01 03:04:34;;;;;;;25.58;18.17;;;-2.60;99.90;;;;;;5062349;28;20040;-78
2023/03/01 03:07:00;;;;;;;26.95;19.10;;;-2.60;99.90;;;;;;5066059;28;20051;-81
2023/03/01 03:09:25;;;;;;;23.20;17.67;;;-2.70;99.90;;;;;;5062626;28;20183;-81
2023/03/01 03:11:51;;;;;;;27.50;19.02;;;-2.70;99.90;;;;;;5061132;28;20041;-81
2023/03/01 03:14:17;;;;;;;21.23;16.55;;;-2.70;99.90;;;;;;5065831;28;20052;-81
2023/03/01 03:16:45;;;;;;;26.45;17.90;;;-2.70;99.90;;;;;;5067509;28;20097;-79
2023/03/01 03:19:11;;;;;;;24.60;17.20;;;-2.60;99.90;;;;;;5068181;28;20040;-79
2023/03/01 03:21:37;;;;;;;21.48;16.77;;;-2.60;99.90;;;;;;5075645;28;20056;-78
2023/03/01 03:24:03;;;;;;;26.70;18.73;;;-2.60;99.90;;;;;;5069319;28;21340;-78
2023/03/01 03:26:29;;;;;;;28.52;19.52;;;-2.60;99.90;;;;;;5070265;28;20403;-79
2023/03/01 03:28:55;;;;;;;23.35;18.02;;;-2.50;99.90;;;;;;5076858;28;20040;-80
2023/03/01 03:31:21;;;;;;;23.10;17.75;;;-2.70;99.90;;;;;;5074806;28;20067;-80
2023/03/01 03:33:46;;;;;;;24.50;17.98;;;-2.60;99.90;;;;;;5072724;28;20131;-79
2023/03/01 03:36:18;;;;;;;26.73;18.77;;;-2.60;99.90;;;;;;5068578;28;20041;-80
2023/03/01 03:38:45;;;;;;;26.23;19.40;;;-2.70;99.90;;;;;;5067945;28;20036;-79
2023/03/01 03:41:12;;;;;;;27.48;19.20;;;-2.60;99.90;;;;;;5049862;28;20037;-79
2023/03/01 03:43:40;;;;;;;24.48;18.77;;;-2.70;99.90;;;;;;5073772;28;20044;-79
2023/03/01 03:46:06;;;;;;;26.83;18.33;;;-2.70;99.90;;;;;;5073661;28;20048;-81
2023/03/01 03:48:41;;;;;;;25.08;17.52;;;-2.70;99.90;;;;;;5078197;28;20070;-80
2023/03/01 03:51:07;;;;;;;24.23;17.73;;;-2.80;99.90;;;;;;5077565;28;20047;-80
2023/03/01 03:53:33;;;;;;;24.48;18.10;;;-2.70;99.90;;;;;;5074753;28;20044;-80
2023/03/01 03:55:59;;;;;;;24.05;18.70;;;-2.80;99.90;;;;;;5067151;28;20032;-80
2023/03/01 03:58:26;;;;;;;26.02;19.25;;;-2.80;99.90;;;;;;5070747;28;20052;-80
2023/03/01 04:00:58;;;;;;;25.48;18.80;;;-2.80;99.90;;;;;;5073028;28;20029;-80
2023/03/01 04:03:26;;;;;;;26.98;19.48;;;-2.80;99.90;;;;;;5067721;28;20067;-80
2023/03/01 04:05:52;;;;;;;24.35;18.85;;;-2.80;99.90;;;;;;5073566;28;20040;-80
2023/03/01 04:08:21;;;;;;;24.65;18.05;;;-2.90;99.90;;;;;;5071599;28;20045;-80
2023/03/01 04:10:48;;;;;;;23.25;17.65;;;-2.90;99.90;;;;;;5072129;28;20055;-80
2023/03/01 04:13:17;;;;;;;23.42;17.73;;;-3.00;99.90;;;;;;5078262;28;20036;-80
2023/03/01 04:15:42;;;;;;;;;;;-3.00;99.90;;;;;;5074138;28;20363;-81
2023/03/01 04:18:12;;;;;;;22.23;16.63;;;-3.00;99.90;;;;;;5068895;28;19920;-80
2023/03/01 04:20:38;;;;;;;23.52;18.13;;;-3.00;99.90;;;;;;5069203;28;20099;-79
2023/03/01 04:23:13;;;;;;;22.45;16.77;;;-3.10;99.90;;;;;;5067979;28;20491;-79
2023/03/01 04:25:59;;;;;;;22.02;17.30;;;-3.10;99.90;;;;;;5064522;28;20434;-80
2023/03/01 04:28:35;;;;;;;23.45;18.42;;;-3.10;99.90;;;;;;5069144;28;20083;-79
2023/03/01 04:31:16;;;;;;;22.70;16.67;;;-3.20;99.90;;;;;;5066362;28;20048;-80
2023/03/01 04:33:46;;;;;;;25.90;16.77;;;-3.20;99.90;;;;;;5069417;28;20119;-79
2023/03/01 04:36:14;;;;;;;21.27;16.65;;;-3.20;99.90;;;;;;5073450;28;20041;-79
2023/03/01 04:38:40;;;;;;;22.33;17.45;;;-3.20;99.90;;;;;;5071404;28;20491;-79
2023/03/01 04:41:08;;;;;;;22.48;16.80;;;-3.30;99.90;;;;;;5073205;28;20037;-80
2023/03/01 04:43:34;;;;;;;22.92;17.88;;;-3.30;99.90;;;;;;5075429;28;20115;-80
2023/03/01 04:46:06;;;;;;;24.42;18.27;;;-3.30;99.90;;;;;;5074629;28;20102;-80
2023/03/01 04:48:31;;;;;;;23.58;18.05;;;-3.30;99.90;;;;;;5054565;28;20037;-80
2023/03/01 04:50:59;;;;;;;25.60;18.98;;;-3.30;99.90;;;;;;5078073;28;20051;-79
2023/03/01 04:53:24;;;;;;;25.08;17.55;;;-3.30;99.90;;;;;;5076780;28;20033;-80
2023/03/01 04:55:50;;;;;;;24.05;16.77;;;-3.40;99.90;;;;;;5073583;28;20045;-81
2023/03/01 04:58:16;;;;;;;22.70;17.38;;;-3.30;99.90;;;;;;5074601;28;20048;-81
2023/03/01 05:00:42;;;;;;;23.45;17.67;;;-3.30;99.90;;;;;;5073749;28;20048;-81
2023/03/01 05:03:08;;;;;;;20.83;17.00;;;-3.30;99.90;;;;;;5075740;28;20060;-80
2023/03/01 05:05:36;;;;;;;21.40;15.18;;;-3.40;99.90;;;;;;5073753;28;20438;-80
2023/03/01 05:08:04;;;;;;;;;;;-3.40;99.90;;;;;;5068929;28;20479;-80
2023/03/01 05:10:31;;;;;;;24.20;17.45;;;-3.30;99.90;;;;;;5070824;28;19967;-79
2023/03/01 05:12:58;;;;;;;22.83;17.15;;;-3.40;99.90;;;;;;5068022;28;20037;-79
2023/03/01 05:15:26;;;;;;;23.95;17.77;;;-3.40;99.90;;;;;;5072710;28;20040;-79
2023/03/01 05:17:53;;;;;;;25.83;17.15;;;-3.40;99.90;;;;;;5073784;28;20085;-79
2023/03/01 05:20:22;;;;;;;23.88;17.95;;;-3.40;99.90;;;;;;5077396;28;20040;-79
2023/03/01 05:22:49;;;;;;;22.90;17.25;;;-3.40;99.90;;;;;;5068632;28;20367;-79
2023/03/01 05:25:15;;;;;;;26.25;18.30;;;-3.40;99.90;;;;;;5071082;28;20071;-80
2023/03/01 05:27:41;;;;;;;28.25;18.73;;;-3.50;99.90;;;;;;5069772;28;20049;-79
2023/03/01 05:30:14;;;;;;;23.00;18.08;;;-3.50;99.90;;;;;;5078887;28;20413;-79
2023/03/01 05:32:48;;;;;;;27.33;17.70;;;-3.50;99.90;;;;;;5073899;28;20531;-79
2023/03/01 05:35:16;;;;;;;27.88;18.45;;;-3.50;99.90;;;;;;5076361;28;20378;-80
2023/03/01 05:37:47;;;;;;;24.95;19.10;;;-3.60;99.90;;;;;;5071948;28;20048;-80
2023/03/01 05:40:18;;;;;;;24.45;18.20;;;-3.50;99.90;;;;;;5078770;28;20032;-80
2023/03/01 05:42:46;;;;;;;28.20;18.30;;;-3.50;99.90;;;;;;5083879;28;20059;-80
2023/03/01 05:45:12;;;;;;;27.15;19.50;;;-3.60;99.90;;;;;;5073862;28;20052;-79
2023/03/01 05:47:45;;;;;;;25.60;18.30;;;-3.60;99.90;;;;;;5072956;28;20094;-79
2023/03/01 05:50:18;;;;;;;26.45;19.25;;;-3.60;99.90;;;;;;5075983;28;20059;-79
2023/03/01 05:52:46;;;;;;;24.95;17.92;;;-3.60;99.90;;;;;;5074124;28;20490;-80
2023/03/01 05:55:12;;;;;;;28.17;18.48;;;-3.60;99.90;;;;;;5077472;28;20051;-80
2023/03/01 05:57:38;;;;;;;23.70;17.38;;;-3.60;99.90;;;;;;5081993;28;20044;-78
2023/03/01 06:00:06;;;;;;;24.40;17.92;;;-3.60;99.90;;;;;;5070630;28;20039;-79
2023/03/01 06:02:31;;;;;;;27.45;19.38;;;-3.70;99.90;;;;;;5068708;28;20578;-79
2023/03/01 06:04:57;;;;;;;24.55;18.77;;;-3.70;99.90;;;;;;5071115;28;20080;-78
2023/03/01 06:07:23;;;;;;;24.92;19.45;;;-3.70;99.90;;;;;;5068893;28;20045;-78
2023/03/01 06:09:49;;;;;;;23.48;18.15;;;-3.70;99.90;;;;;;5070589;28;20498;-78
2023/03/01 06:12:14;;;;;;;26.55;19.02;;;-3.70;99.90;;;;;;5092467;28;20479;-78
2023/03/01 06:14:40;;;;;;;26.23;18.80;;;-3.60;99.90;;;;;;5090500;28;20072;-78
2023/03/01 06:17:06;;;;;;;26.10;17.48;;;-3.70;99.90;;;;;;5079335;28;20045;-78
2023/03/01 06:19:31;;;;;;;28.20;18.52;;;-3.60;99.90;;;;;;5073816;28;20039;-79
2023/03/01 06:21:57;;;;;;;23.58;17.08;;;-3.60;99.90;;;;;;5072730;28;20044;-78
2023/03/01 06:24:22;;;;;;;26.15;18.15;;;-3.60;99.90;;;;;;5076185;28;20103;-81
2023/03/01 06:26:48;;;;;;;21.38;16.48;;;-3.60;99.90;;;;;;5071030;28;20040;-80
2023/03/01 06:29:14;;;;;;;26.42;18.40;;;-3.60;99.90;;;;;;5072876;28;20092;-80
2023/03/01 06:31:40;;;;;;;25.15;18.83;;;-3.60;99.90;;;;;;5069145;28;20116;-80
2023/03/01 06:34:05;;;;;;;29.23;19.65;;;-3.60;99.90;;;;;;5064215;28;20045;-81
2023/03/01 06:36:31;;;;;;;25.05;18.58;;;-3.60;99.90;;;;;;5064350;28;20028;-80
2023/03/01 06:38:56;;;;;;;28.98;18.95;;;-3.50;99.90;;;;;;5064401;28;20131;-80
2023/03/01 06:41:22;;;;;;;26.05;18.45;;;-3.50;99.90;;;;;;5070269;28;20037;-79
2023/03/01 06:43:48;;;;;;;26.35;18.20;;;-3.50;99.90;;;;;;5075130;28;20045;-79
2023/03/01 06:46:13;;;;;;;24.58;18.55;;;-3.50;99.90;;;;;;5078349;28;20069;-80
2023/03/01 06:48:39;;;;;;;23.83;18.02;;;-3.50;99.90;;;;;;5073983;28;20041;-79
2023/03/01 06:51:05;;;;;;;25.17;16.85;;;-3.50;99.90;;;;;;5070486;28;20070;-80
2023/03/01 06:53:30;;;;;;;23.58;17.55;;;-3.50;99.90;;;;;;5067405;28;20040;-80
2023/03/01 06:55:57;;;;;;;25.35;18.50;;;-3.40;99.90;;;;;;5068817;28;20032;-80
2023/03/01 06:58:23;;;;;;;27.17;19.95;;;-3.30;99.90;;;;;;5071082;28;20056;-80
2023/03/01 07:00:48;;;;;;;25.35;19.20;;;-3.20;99.90;;;;;;5071264;28;20040;-81
2023/03/01 07:03:14;;;;;;;27.98;19.30;;;-3.20;99.90;;;;;;5075851;28;20087;-77
2023/03/01 07:05:40;;;;;;;27.48;20.88;;;-3.10;99.90;;;;;;5071247;28;20036;-77
2023/03/01 07:08:05;;;;;;;27.77;20.25;;;-3.10;99.90;;;;;;5066163;28;20487;-77
2023/03/01 07:10:31;;;;;;;25.60;19.40;;;-3.00;99.90;;;;;;5065220;28;20040;-75
2023/03/01 07:12:57;;;;;;;36.05;23.95;;;-2.90;99.90;;;;;;5064114;28;20086;-77
2023/03/01 07:15:23;;;;;;;32.08;23.20;;;-2.80;99.90;;;;;;5067473;28;20041;-76
2023/03/01 07:17:50;;;;;;;30.80;21.77;;;-2.70;99.90;;;;;;5063912;28;20424;-77
2023/03/01 07:20:17;;;;;;;38.08;25.20;;;-2.50;99.90;;;;;;5065109;28;20041;-77
2023/03/01 07:22:43;;;;;;;33.53;24.65;;;-2.30;99.90;;;;;;5064870;28;20475;-79
2023/03/01 07:25:10;;;;;;;35.53;25.00;;;-2.20;99.90;;;;;;5065287;28;20044;-78
2023/03/01 07:27:36;;;;;;;31.35;23.45;;;-2.10;99.90;;;;;;5075511;28;20483;-79
2023/03/01 07:30:02;;;;;;;34.28;25.23;;;-1.90;99.90;;;;;;5069535;28;20036;-77
2023/03/01 07:32:27;;;;;;;34.80;25.42;;;-1.80;99.90;;;;;;5067531;28;20054;-76
2023/03/01 07:34:53;;;;;;;29.60;22.83;;;-1.60;99.90;;;;;;5067551;28;20037;-80
2023/03/01 07:37:19;;;;;;;37.35;26.92;;;-1.50;99.90;;;;;;5071538;28;20057;-80
2023/03/01 07:39:44;;;;;;;30.48;24.10;;;-1.30;99.90;;;;;;5058776;28;20407;-80
2023/03/01 07:42:10;;;;;;;37.40;26.33;;;-1.20;99.90;;;;;;5078986;28;20485;-80
2023/03/01 07:44:35;;;;;;;30.58;22.95;;;-1.10;99.90;;;;;;5054178;28;20130;-80
2023/03/01 07:47:02;;;;;;;31.45;22.02;;;-1.00;99.90;;;;;;5069016;28;20044;-80
2023/03/01 07:49:28;;;;;;;29.15;22.90;;;-0.80;99.90;;;;;;5070754;28;20883;-80
2023/03/01 07:51:54;;;;;;;28.90;23.17;;;-0.70;99.90;;;;;;5069785;28;20040;-79
2023/03/01 07:54:19;;;;;;;27.55;21.60;;;-0.60;99.90;;;;;;5073665;28;20041;-79
2023/03/01 07:56:45;;;;;;;29.88;21.50;;;-0.50;99.90;;;;;;5079306;28;20041;-79
2023/03/01 07:59:10;;;;;;;28.92;21.23;;;-0.40;99.90;;;;;;5072149;28;20057;-79
2023/03/01 08:01:36;;;;;;;29.25;22.13;;;-0.30;99.90;;;;;;5077306;28;20036;-79
2023/03/01 08:04:02;;;;;;;27.48;20.85;;;-0.10;99.90;;;;;;5077307;28;20048;-79
2023/03/01 08:06:27;;;;;;;25.17;19.77;;;0.00;99.90;;;;;;5074547;28;20447;-80
2023/03/01 08:08:56;;;;;;;24.88;19.50;;;0.10;99.90;;;;;;5075106;28;20036;-80
2023/03/01 08:11:23;;;;;;;22.83;17.58;;;0.30;99.90;;;;;;5077444;28;20083;-79
2023/03/01 08:13:48;;;;;;;24.17;18.80;;;0.40;99.90;;;;;;5079126;28;20052;-79
2023/03/01 08:16:15;;;;;;;20.83;17.13;;;0.50;99.90;;;;;;5067791;28;20045;-79
2023/03/01 08:18:42;;;;;;;21.02;16.20;;;0.70;99.90;;;;;;5053915;28;20096;-78
2023/03/01 08:21:13;;;;;;;21.75;15.88;;;0.80;99.90;;;;;;5070407;28;20056;-79
2023/03/01 08:23:39;;;;;;;23.10;16.33;;;1.00;99.90;;;;;;5059924;28;20061;-79
2023/03/01 08:26:06;;;;;;;19.67;15.25;;;1.10;99.90;;;;;;5082696;28;20055;-79
2023/03/01 08:28:32;;;;;;;17.83;14.75;;;1.20;99.90;;;;;;5085095;28;20041;-79
2023/03/01 08:30:58;;;;;;;18.95;15.23;;;1.30;99.90;;;;;;5084309;28;20407;-80
2023/03/01 08:33:23;;;;;;;19.77;15.70;;;1.40;99.90;;;;;;5081027;28;20041;-79
2023/03/01 08:35:49;;;;;;;21.42;13.93;;;1.60;99.90;;;;;;5084410;28;20044;-79
2023/03/01 08:38:15;;;;;;;19.83;14.20;;;1.60;99.90;;;;;;5077989;28;20102;-79
2023/03/01 08:40:40;;;;;;;15.68;12.75;;;1.80;99.90;;;;;;5079756;28;20051;-78
2023/03/01 08:43:06;;;;;;;14.40;12.68;;;1.90;99.90;;;;;;5079599;28;20037;-78
2023/03/01 08:45:31;;;;;;;14.60;12.23;;;2.10;99.90;;;;;;5078419;28;20098;-79
2023/03/01 08:47:57;;;;;;;15.02;12.05;;;2.20;99.90;;;;;;5088661;28;20051;-79
2023/03/01 08:50:24;;;;;;;13.98;12.07;;;2.40;99.90;;;;;;5093262;28;20037;-80
2023/03/01 08:52:50;;;;;;;17.20;12.18;;;2.50;99.90;;;;;;5082543;28;20406;-78
2023/03/01 08:55:17;;;;;;;15.02;12.77;;;2.60;99.90;;;;;;5080543;28;20036;-80
2023/03/01 08:57:43;;;;;;;17.80;12.68;;;2.70;99.90;;;;;;5073749;28;20045;-79
2023/03/01 09:00:11;;;;;;;17.85;12.98;;;2.80;99.90;;;;;;5061230;28;20037;-79
2023/03/01 09:02:36;;;;;;;16.48;13.43;;;2.80;99.90;;;;;;5079012;28;20051;-79
2023/03/01 09:05:02;;;;;;;18.52;12.77;;;2.90;99.90;;;;;;5074926;28;20048;-79
2023/03/01 09:07:28;;;;;;;14.88;13.02;;;3.10;99.90;;;;;;5080531;28;20310;-79
2023/03/01 09:09:55;;;;;;;16.00;12.13;;;3.20;99.90;;;;;;5085130;28;20513;-79
2023/03/01 09:12:21;;;;;;;14.98;12.07;;;3.20;99.90;;;;;;5074053;28;20048;-78
2023/03/01 09:14:46;;;;;;;14.60;11.02;;;3.40;99.90;;;;;;5081055;28;20379;-78
2023/03/01 09:17:12;;;;;;;15.60;12.48;;;3.50;99.90;;;;;;5074277;28;20043;-77
2023/03/01 09:19:37;;;;;;;15.20;13.43;;;3.60;99.90;;;;;;5070812;28;20045;-77
2023/03/01 09:22:04;;;;;;;15.90;11.18;;;3.70;99.90;;;;;;5056496;28;20049;-77
2023/03/01 09:24:30;;;;;;;14.25;11.75;;;3.80;99.90;;;;;;5071242;28;20036;-77
2023/03/01 09:26:56;;;;;;;13.90;11.85;;;3.90;99.90;;;;;;5072202;28;20124;-77
2023/03/01 09:29:22;;;;;;;14.55;11.52;;;4.10;99.90;;;;;;5069257;28;20118;-78
2023/03/01 09:31:48;;;;;;;13.93;11.18;;;4.10;99.90;;;;;;5073391;28;20055;-78
2023/03/01 09:34:22;;;;;;;12.00;10.25;;;4.30;99.90;;;;;;5071804;28;20321;-78
2023/03/01 09:36:48;;;;;;;12.52;10.02;;;4.30;99.90;;;;;;5056879;28;20090;-78
2023/03/01 09:39:14;;;;;;;13.65;9.73;;;4.50;99.90;;;;;;5072403;28;20040;-78
2023/03/01 09:42:01;;;;;;;10.27;9.13;;;4.50;99.90;;;;;;5071797;28;20040;-78
2023/03/01 09:44:40;;;;;;;10.07;7.93;;;4.60;99.90;;;;;;5071734;28;20056;-78
2023/03/01 09:47:16;;;;;;;10.75;7.30;;;4.60;99.90;;;;;;5068938;28;20060;-78
2023/03/01 09:49:48;;;;;;;7.00;6.30;;;4.70;99.90;;;;;;5068308;28;20040;-78
2023/03/01 09:52:53;;;;;;;8.60;5.95;;;4.80;99.90;;;;;;5070617;28;20131;-77
2023/03/01 09:55:31;;;;;;;6.32;5.50;;;4.90;99.90;;;;;;5068922;28;20454;-78
2023/03/01 09:58:22;;;;;;;;;;;5.10;99.90;;;;;;5075546;28;20044;-78
2023/03/01 10:00:49;;;;;;;3.83;3.42;;;5.00;99.90;;;;;;5072543;28;19920;-77
2023/03/01 10:03:42;;;;;;;5.88;3.60;;;5.20;99.90;;;;;;5074857;28;20044;-75
2023/03/01 10:06:19;;;;;;;6.82;4.40;;;5.20;99.90;;;;;;5077603;28;20040;-76
2023/03/01 10:09:07;;;;;;;5.53;3.60;;;5.30;99.90;;;;;;5070710;28;20053;-76
2023/03/01 10:11:38;;;;;;;5.03;3.67;;;5.30;99.90;;;;;;5072358;28;20517;-75
2023/03/01 10:14:35;;;;;;;7.25;3.80;;;5.30;99.90;;;;;;5075949;28;20076;-75
2023/03/01 10:17:18;;;;;;;8.25;4.72;;;5.40;99.90;;;;;;5067882;28;20071;-76
2023/03/01 10:19:46;;;;;;;6.28;3.70;;;5.50;99.90;;;;;;5070163;28;20064;-76
2023/03/01 10:22:14;;;;;;;;;;;5.60;99.90;;;;;;5071857;28;20114;-76
2023/03/01 10:24:40;;;;;;;4.63;3.67;;;5.60;99.90;;;;;;5072182;28;20374;-76
2023/03/01 10:27:13;;;;;;;6.18;4.00;;;5.60;99.90;;;;;;5075242;28;20045;-76
2023/03/01 10:30:05;;;;;;;4.93;2.72;;;5.70;99.90;;;;;;5066003;28;20051;-76
2023/03/01 10:32:31;;;;;;;3.90;2.70;;;5.70;99.90;;;;;;5069552;28;20041;-75
2023/03/01 10:34:57;;;;;;;4.72;3.22;;;5.70;99.90;;;;;;5066574;28;20063;-75
2023/03/01 10:37:24;;;;;;;4.53;2.85;;;5.90;99.90;;;;;;5069731;28;20047;-76
2023/03/01 10:40:09;;;;;;;5.27;4.13;;;5.90;99.90;;;;;;5069161;28;20048;-75
2023/03/01 10:42:46;;;;;;;4.25;3.40;;;5.90;99.90;;;;;;5052985;28;20452;-75
2023/03/01 10:45:36;;;;;;;4.97;3.33;;;6.00;99.90;;;;;;5064822;28;20040;-74
2023/03/01 10:48:08;;;;;;;4.22;3.35;;;6.10;99.90;;;;;;5048169;28;20053;-74
2023/03/01 10:50:34;;;;;;;4.05;3.22;;;6.20;99.90;;;;;;5063501;28;20040;-74
2023/03/01 10:53:04;;;;;;;5.10;3.55;;;6.20;99.90;;;;;;5070801;28;20037;-74
2023/03/01 10:55:39;;;;;;;6.47;3.30;;;6.30;99.90;;;;;;5068816;28;20539;-74
2023/03/01 10:58:20;;;;;;;6.35;3.50;;;6.40;99.90;;;;;;5044304;28;20076;-74
2023/03/01 11:01:00;;;;;;;4.93;3.70;;;6.40;99.90;;;;;;5064685;28;20441;-74
2023/03/01 11:03:28;;;;;;;6.30;3.20;;;6.40;99.90;;;;;;5074740;28;20047;-76
2023/03/01 11:05:57;;;;;;;4.28;3.22;;;6.40;99.90;;;;;;5066590;28;20491;-76
2023/03/01 11:08:44;;;;;;;8.50;3.55;;;6.30;99.90;;;;;;5067984;28;20419;-77
2023/03/01 11:11:34;;;;;;;6.00;3.50;;;6.40;99.90;;;;;;5135669;27;20409;-48
2023/03/01 11:14:16;;;;;;;4.03;3.45;;;6.40;99.90;;;;;;5121195;28;20054;-49
2023/03/01 11:16:45;;;;;;;3.55;3.17;;;6.50;99.90;;;;;;5115906;28;20059;-49
2023/03/01 11:19:11;;;;;;;5.20;3.45;;;6.60;99.90;;;;;;5124559;28;20489;-49
2023/03/01 11:21:45;;;;;;;4.97;3.83;;;6.60;99.90;;;;;;5112748;28;20076;-49
2023/03/01 11:24:14;;;;;;;4.25;3.55;;;6.60;99.90;;;;;;5122451;28;20515;-48
2023/03/01 11:26:50;;;;;;;7.13;4.50;;;6.70;99.90;;;;;;5123156;28;20032;-52
2023/03/01 11:30:11;;;;;;;7.00;4.13;;;6.80;99.90;;;;;;5116110;28;20043;-48
2023/03/01 11:32:46;;;;;;;7.65;4.82;;;6.90;99.90;;;;;;5057254;28;20045;-48
2023/03/01 11:35:25;;;;;;;10.18;4.55;;;6.90;99.90;;;;;;5061232;28;20065;-49
2023/03/01 11:38:19;;;;;;;7.90;5.15;;;6.80;99.90;;;;;;5062663;28;20091;-50
2023/03/01 11:40:51;;;;;;;7.28;5.25;;;6.90;99.90;;;;;;5059646;28;20045;-49
2023/03/01 11:43:38;;;;;;;7.75;5.22;;;7.00;99.90;;;;;;5059804;28;20127;-49
2023/03/01 11:46:25;;;;;;;6.33;4.67;;;7.00;99.90;;;;;;5066189;28;20055;-50
2023/03/01 11:48:58;;;;;;;8.13;5.75;;;7.10;99.90;;;;;;5060934;28;20055;-48
2023/03/01 11:51:32;;;;;;;7.55;5.80;;;7.10;99.90;;;;;;5062746;28;20049;-49
2023/03/01 11:54:23;;;;;;;7.55;5.35;;;7.10;99.90;;;;;;5062398;28;20053;-53
2023/03/01 11:57:12;;;;;;;6.03;4.30;;;7.20;99.90;;;;;;5058023;28;20093;-48
2023/03/01 11:59:46;;;;;;;6.53;4.80;;;7.10;99.90;;;;;;5060631;28;20053;-48
2023/03/01 12:02:33;;;;;;;6.57;5.85;;;7.00;99.90;;;;;;5059810;28;20041;-50
2023/03/01 12:05:17;;;;;;;7.78;5.28;;;7.10;99.90;;;;;;5058271;28;20044;-48
2023/03/01 12:07:46;;;;;;;8.05;5.53;;;7.10;99.90;;;;;;5117825;28;20040;-49
2023/03/01 12:10:22;;;;;;;7.85;5.88;;;7.20;99.90;;;;;;5121948;28;20051;-50
2023/03/01 12:12:53;;;;;;;7.80;5.40;;;7.30;99.90;;;;;;5118211;28;20027;-50
2023/03/01 12:15:57;;;;;;;8.85;5.40;;;7.40;99.90;;;;;;5102901;28;20164;-48
2023/03/01 12:18:22;;;;;;;6.65;5.35;;;7.40;99.90;;;;;;5117070;28;20092;-49
2023/03/01 12:21:16;;;;;;;8.95;6.40;;;7.40;99.90;;;;;;5099507;28;20281;-49
2023/03/01 12:23:54;;;;;;;7.40;5.35;;;7.50;99.90;;;;;;5103928;28;20046;-48
2023/03/01 12:26:28;;;;;;;;;;;7.50;99.90;;;;;;5102797;28;20040;-48
2023/03/01 12:29:16;;;;;;;6.47;4.55;;;7.40;99.90;;;;;;5108184;28;19928;-50
2023/03/01 12:31:53;;;;;;;7.57;6.30;;;7.50;99.90;;;;;;5110227;28;20047;-48
2023/03/01 12:34:30;;;;;;;9.27;7.10;;;7.60;99.90;;;;;;5112219;28;20509;-49
2023/03/01 12:37:11;;;;;;;7.60;5.95;;;7.80;99.90;;;;;;5101068;28;20289;-50
2023/03/01 12:40:00;;;;;;;8.85;6.35;;;7.80;99.90;;;;;;5107144;28;20032;-48
2023/03/01 12:42:31;;;;;;;8.63;6.85;;;7.70;99.90;;;;;;5103636;28;20066;-49
2023/03/01 12:45:00;;;;;;;9.50;6.85;;;7.80;99.90;;;;;;5102931;28;20097;-49
2023/03/01 12:47:54;;;;;;;7.60;6.22;;;7.90;99.90;;;;;;5107932;28;20071;-49
2023/03/01 12:50:25;;;;;;;10.48;6.90;;;7.80;99.90;;;;;;5106012;28;20040;-48
2023/03/01 12:52:55;;;;;;;7.93;6.07;;;7.80;99.90;;;;;;5106600;28;20078;-49
2023/03/01 12:55:28;;;;;;;6.65;5.82;;;7.90;99.90;;;;;;5102662;28;20039;-48
2023/03/01 12:58:04;;;;;;;7.93;6.55;;;7.90;99.90;;;;;;5102790;28;20031;-48